Time;durP1;ratioP1;P1;durP2;ratioP2;P2;SDS_P1;SDS_P2;PMS_P1;PMS_P2;Temp;Humidity;BMP_temperature;BMP_pressure;BME280_temperature;BME280_humidity;BME280_pressure;Samples;Min_cycle;Max_cycle;Signal;HPM_P1;HPM_P2
2022/12/01 00:00:36;;;;;;;30.10;20.85;;;6.60;99.90;;;;;;5047449;28;20033;-78
2022/12/01 00:03:03;;;;;;;26.70;18.88;;;6.50;99.90;;;;;;5047650;28;20040;-77
2022/12/01 00:05:29;;;;;;;28.45;19.30;;;6.50;99.90;;;;;;5045833;28;20049;-76
2022/12/01 00:07:56;;;;;;;27.15;22.80;;;6.50;99.90;;;;;;5046011;28;20068;-77
2022/12/01 00:10:25;;;;;;;33.72;23.08;;;6.50;99.90;;;;;;5046291;28;20061;-76
2022/12/01 00:12:56;;;;;;;33.42;21.95;;;6.40;99.90;;;;;;5047069;28;20026;-77
2022/12/01 00:15:24;;;;;;;28.02;21.00;;;6.40;99.90;;;;;;5027280;28;20056;-77
2022/12/01 00:17:50;;;;;;;37.80;20.92;;;6.40;99.90;;;;;;5026071;28;20464;-78
2022/12/01 00:20:16;;;;;;;27.23;20.02;;;6.40;99.90;;;;;;5026303;28;20048;-77
2022/12/01 00:22:44;;;;;;;27.52;22.77;;;6.40;99.90;;;;;;5027072;28;20038;-77
2022/12/01 00:25:12;;;;;;;29.08;19.45;;;6.50;99.90;;;;;;5025863;28;20101;-78
2022/12/01 00:27:39;;;;;;;32.63;19.67;;;6.40;99.90;;;;;;5033974;28;20112;-77
2022/12/01 00:30:08;;;;;;;24.58;21.50;;;6.40;99.90;;;;;;5045000;28;20029;-77
2022/12/01 00:32:34;;;;;;;29.45;20.80;;;6.40;99.90;;;;;;5046694;28;20474;-77
2022/12/01 00:35:00;;;;;;;32.15;21.05;;;6.40;99.90;;;;;;5045911;28;20060;-77
2022/12/01 00:37:29;;;;;;;33.55;20.35;;;6.30;99.90;;;;;;5046736;28;20036;-78
2022/12/01 00:39:55;;;;;;;26.08;19.70;;;6.40;99.90;;;;;;5046495;28;20028;-77
2022/12/01 00:42:21;;;;;;;30.45;20.50;;;6.40;99.90;;;;;;5046882;28;20037;-77
2022/12/01 00:44:47;;;;;;;25.83;19.98;;;6.40;99.90;;;;;;5045920;28;20029;-77
2022/12/01 00:47:13;;;;;;;26.42;19.55;;;6.40;99.90;;;;;;5046530;28;20064;-78
2022/12/01 00:49:39;;;;;;;24.02;17.75;;;6.30;99.90;;;;;;5046626;28;20036;-77
2022/12/01 00:52:05;;;;;;;27.65;21.92;;;6.30;99.90;;;;;;5046308;28;20037;-77
2022/12/01 00:54:31;;;;;;;23.25;19.55;;;6.30;99.90;;;;;;5045117;28;20017;-78
2022/12/01 00:57:00;;;;;;;29.92;19.83;;;6.30;99.90;;;;;;5045359;28;20072;-78
2022/12/01 00:59:25;;;;;;;27.92;20.15;;;6.20;99.90;;;;;;5044932;28;20108;-77
2022/12/01 01:01:52;;;;;;;22.38;18.30;;;6.20;99.90;;;;;;5046209;28;20030;-77
2022/12/01 01:04:18;;;;;;;27.52;18.58;;;6.20;99.90;;;;;;5046436;28;20049;-77
2022/12/01 01:06:45;;;;;;;29.92;21.75;;;6.20;99.90;;;;;;5045036;28;20064;-77
2022/12/01 01:09:12;;;;;;;27.75;20.60;;;6.20;99.90;;;;;;5046294;28;20026;-78
2022/12/01 01:11:38;;;;;;;34.25;22.67;;;6.20;99.90;;;;;;5046169;28;20029;-78
2022/12/01 01:14:05;;;;;;;37.45;24.38;;;6.20;99.90;;;;;;5026318;28;20038;-76
2022/12/01 01:16:31;;;;;;;28.52;21.02;;;6.20;99.90;;;;;;5025271;28;20018;-76
2022/12/01 01:18:57;;;;;;;30.63;23.20;;;6.20;99.90;;;;;;5025053;28;20029;-76
2022/12/01 01:21:24;;;;;;;30.10;23.17;;;6.10;99.90;;;;;;5026392;28;20026;-75
2022/12/01 01:23:51;;;;;;;28.77;22.17;;;6.10;99.90;;;;;;5027213;28;20045;-76
2022/12/01 01:26:26;;;;;;;29.88;22.73;;;6.10;99.90;;;;;;5031712;28;20033;-76
2022/12/01 01:28:54;;;;;;;39.05;23.35;;;6.10;99.90;;;;;;5045224;28;20048;-76
2022/12/01 01:31:22;;;;;;;39.72;23.15;;;6.10;99.90;;;;;;5028291;28;20052;-75
2022/12/01 01:33:48;;;;;;;43.58;26.70;;;6.10;99.90;;;;;;5045994;28;20109;-75
2022/12/01 01:36:15;;;;;;;33.22;21.90;;;6.10;99.90;;;;;;5045809;28;20175;-76
2022/12/01 01:38:40;;;;;;;38.58;24.48;;;6.10;99.90;;;;;;5045737;28;20056;-76
2022/12/01 01:41:06;;;;;;;40.97;25.63;;;6.10;99.90;;;;;;5045738;28;20033;-76
2022/12/01 01:43:54;;;;;;;40.60;24.75;;;6.10;99.90;;;;;;5043891;28;20041;-77
2022/12/01 01:46:32;;;;;;;44.10;25.52;;;6.10;99.90;;;;;;5045649;28;20033;-75
2022/12/01 01:49:12;;;;;;;37.53;24.33;;;6.20;99.90;;;;;;5045747;28;20037;-75
2022/12/01 01:51:48;;;;;;;29.05;25.35;;;6.20;99.90;;;;;;5045819;28;20463;-76
2022/12/01 01:54:24;;;;;;;40.53;25.77;;;6.20;99.90;;;;;;5044425;28;20025;-76
2022/12/01 01:56:51;;;;;;;43.22;29.25;;;6.20;99.90;;;;;;5045643;28;20033;-76
2022/12/01 01:59:36;;;;;;;36.00;21.95;;;6.20;99.90;;;;;;5045605;28;20036;-75
2022/12/01 02:02:07;;;;;;;36.28;25.27;;;6.20;99.90;;;;;;5044543;28;20059;-75
2022/12/01 02:04:39;;;;;;;38.58;27.23;;;6.20;99.90;;;;;;5048181;28;20053;-76
2022/12/01 02:07:10;;;;;;;45.90;27.85;;;6.20;99.90;;;;;;5048135;28;20068;-76
2022/12/01 02:09:36;;;;;;;44.67;26.55;;;6.20;99.90;;;;;;5048453;28;20033;-76
2022/12/01 02:12:50;;;;;;;37.65;27.08;;;6.20;99.90;;;;;;5039154;28;20076;-76
2022/12/01 02:15:53;;;;;;;56.08;29.48;;;6.10;99.90;;;;;;5028174;28;20034;-78
2022/12/01 02:18:47;;;;;;;44.90;28.33;;;6.20;99.90;;;;;;5029602;28;20025;-77
2022/12/01 02:21:25;;;;;;;48.30;29.45;;;6.20;99.90;;;;;;5028406;28;20080;-78
2022/12/01 02:24:15;;;;;;;38.30;26.15;;;6.10;99.90;;;;;;5029606;28;20109;-76
2022/12/01 02:27:26;;;;;;;41.35;29.92;;;6.10;99.90;;;;;;5028258;28;20037;-78
2022/12/01 02:29:58;;;;;;;49.22;28.83;;;6.10;99.90;;;;;;5029422;28;20109;-78
2022/12/01 02:32:30;;;;;;;44.00;29.38;;;6.10;99.90;;;;;;5028155;28;20030;-77
2022/12/01 02:35:22;;;;;;;45.83;28.55;;;6.00;99.90;;;;;;5029559;28;20037;-77
2022/12/01 02:37:59;;;;;;;43.75;27.55;;;6.00;99.90;;;;;;5013753;28;20451;-77
2022/12/01 02:40:38;;;;;;;42.75;27.33;;;6.10;99.90;;;;;;5027947;28;20041;-77
2022/12/01 02:43:11;;;;;;;40.60;25.13;;;6.10;99.90;;;;;;5044603;28;20029;-77
2022/12/01 02:46:06;;;;;;;36.65;25.40;;;6.00;99.90;;;;;;5047776;28;20043;-78
2022/12/01 02:48:38;;;;;;;40.55;23.67;;;6.10;99.90;;;;;;5047555;28;20033;-78
2022/12/01 02:51:37;;;;;;;33.75;26.13;;;6.00;99.90;;;;;;5048754;28;20056;-78
2022/12/01 02:54:04;;;;;;;42.50;27.90;;;6.00;99.90;;;;;;5046354;28;20095;-77
2022/12/01 02:56:30;;;;;;;35.65;26.33;;;6.10;99.90;;;;;;5039476;28;20057;-78
2022/12/01 02:58:56;;;;;;;46.55;25.40;;;6.10;99.90;;;;;;5028994;28;20030;-77
2022/12/01 03:01:56;;;;;;;33.50;21.73;;;6.10;99.90;;;;;;5038310;28;20029;-77
2022/12/01 03:04:43;;;;;;;27.58;17.25;;;6.10;99.90;;;;;;5046884;28;20061;-77
2022/12/01 03:07:32;;;;;;;36.50;23.83;;;6.10;99.90;;;;;;5047550;28;20033;-77
2022/12/01 03:10:16;;;;;;;49.25;28.55;;;6.10;99.90;;;;;;5048566;28;20056;-77
2022/12/01 03:13:00;;;;;;;39.00;25.92;;;6.10;99.90;;;;;;5048623;28;20021;-77
2022/12/01 03:15:52;;;;;;;31.33;23.15;;;6.00;99.90;;;;;;5046804;28;20032;-77
2022/12/01 03:18:23;;;;;;;48.05;26.00;;;6.00;99.90;;;;;;5048225;28;20097;-78
2022/12/01 03:20:55;;;;;;;40.78;27.40;;;6.10;99.90;;;;;;5047080;28;20057;-77
2022/12/01 03:23:25;;;;;;;38.10;23.42;;;6.00;99.90;;;;;;5048260;28;20025;-77
2022/12/01 03:25:55;;;;;;;39.92;26.75;;;6.00;99.90;;;;;;5048214;28;20038;-77
2022/12/01 03:28:27;;;;;;;41.20;28.42;;;6.00;99.90;;;;;;5048331;28;20026;-77
2022/12/01 03:30:58;;;;;;;41.67;24.42;;;6.00;99.90;;;;;;5041893;28;20431;-76
2022/12/01 03:33:31;;;;;;;40.95;26.33;;;6.10;99.90;;;;;;5027074;28;20129;-77
2022/12/01 03:36:13;;;;;;;36.95;23.20;;;6.00;99.90;;;;;;5028205;28;20030;-77
2022/12/01 03:38:43;;;;;;;40.20;27.48;;;6.00;99.90;;;;;;5026883;28;20490;-77
2022/12/01 03:41:13;;;;;;;49.53;29.33;;;6.00;99.90;;;;;;5028120;28;20036;-77
2022/12/01 03:43:43;;;;;;;43.35;23.65;;;6.00;99.90;;;;;;5047181;28;20060;-77
2022/12/01 03:46:10;;;;;;;43.85;28.33;;;6.00;99.90;;;;;;5036928;28;20070;-77
2022/12/01 03:48:38;;;;;;;44.90;32.20;;;6.00;99.90;;;;;;5027889;28;20471;-78
2022/12/01 03:51:07;;;;;;;42.95;27.45;;;6.00;99.90;;;;;;5010396;28;20120;-77
2022/12/01 03:54:00;;;;;;;45.00;27.83;;;6.10;99.90;;;;;;5027738;28;20029;-77
2022/12/01 03:56:31;;;;;;;39.30;23.58;;;6.00;99.90;;;;;;5035860;28;20041;-77
2022/12/01 03:59:01;;;;;;;41.90;29.50;;;6.00;99.90;;;;;;5026542;28;20033;-78
2022/12/01 04:01:33;;;;;;;;;;;6.00;99.90;;;;;;5039816;28;20052;-75
2022/12/01 04:04:13;;;;;;;41.17;25.42;;;6.00;99.90;;;;;;5046101;28;19917;-77
2022/12/01 04:06:45;;;;;;;39.17;28.10;;;6.00;99.90;;;;;;5046413;28;20064;-77
2022/12/01 04:09:11;;;;;;;49.17;29.65;;;6.00;99.90;;;;;;5047326;28;20079;-77
2022/12/01 04:14:21;;;;;;;54.50;28.10;;;6.00;99.90;;;;;;5047261;28;20038;-78
2022/12/01 04:16:47;;;;;;;43.65;31.05;;;6.00;99.90;;;;;;5036307;28;20380;-78
2022/12/01 04:19:13;;;;;;;50.00;31.58;;;6.00;99.90;;;;;;5027195;28;20080;-78
2022/12/01 04:21:39;;;;;;;46.45;28.30;;;6.10;99.90;;;;;;5027331;28;20056;-77
2022/12/01 04:24:05;;;;;;;62.28;35.63;;;6.00;99.90;;;;;;5027408;28;20038;-77
2022/12/01 04:26:34;;;;;;;53.10;33.25;;;6.00;99.90;;;;;;5026544;28;20479;-77
2022/12/01 04:29:02;;;;;;;48.50;31.00;;;6.00;99.90;;;;;;5027126;28;20467;-77
2022/12/01 04:31:28;;;;;;;51.05;30.30;;;6.10;99.90;;;;;;5040384;28;20025;-78
2022/12/01 04:33:56;;;;;;;51.13;30.23;;;6.00;99.90;;;;;;5046530;28;20029;-77
2022/12/01 04:36:22;;;;;;;49.45;30.95;;;6.00;99.90;;;;;;5046814;28;20033;-77
2022/12/01 04:38:48;;;;;;;61.10;32.78;;;6.00;99.90;;;;;;5045634;28;20025;-77
2022/12/01 04:41:14;;;;;;;61.83;32.47;;;6.00;99.90;;;;;;5046682;28;20038;-77
2022/12/01 04:43:41;;;;;;;48.65;29.92;;;6.00;99.90;;;;;;5046576;28;20176;-77
2022/12/01 04:46:07;;;;;;;54.58;33.75;;;6.00;99.90;;;;;;5029145;28;20052;-77
2022/12/01 04:48:34;;;;;;;59.53;30.23;;;6.00;99.90;;;;;;5031875;28;20034;-76
2022/12/01 04:51:01;;;;;;;51.03;31.35;;;6.00;99.90;;;;;;5026790;28;20076;-77
2022/12/01 04:53:28;;;;;;;57.90;30.40;;;6.00;99.90;;;;;;5025584;28;20033;-77
2022/12/01 04:55:53;;;;;;;50.08;30.38;;;6.00;99.90;;;;;;5009104;28;20021;-77
2022/12/01 04:58:19;;;;;;;47.55;27.90;;;6.00;99.90;;;;;;5026527;28;20034;-77
2022/12/01 05:00:45;;;;;;;43.65;28.10;;;6.00;99.90;;;;;;5032559;28;20064;-77
2022/12/01 05:03:11;;;;;;;46.55;29.33;;;6.00;99.90;;;;;;5046149;28;20041;-77
2022/12/01 05:05:37;;;;;;;63.80;32.28;;;6.00;99.90;;;;;;5046260;28;20033;-77
2022/12/01 05:08:03;;;;;;;46.70;30.85;;;6.00;99.90;;;;;;5046398;28;20537;-77
2022/12/01 05:10:29;;;;;;;56.13;27.80;;;6.00;99.90;;;;;;5044987;28;20036;-77
2022/12/01 05:12:56;;;;;;;54.00;30.58;;;6.10;99.90;;;;;;5045268;28;20034;-77
2022/12/01 05:15:22;;;;;;;48.58;28.48;;;6.10;99.90;;;;;;5045879;28;20057;-77
2022/12/01 05:17:48;;;;;;;46.70;26.65;;;6.10;99.90;;;;;;5044597;28;20552;-77
2022/12/01 05:23:05;;;;;;;38.60;26.90;;;6.00;99.90;;;;;;5046237;28;20029;-77
2022/12/01 05:25:31;;;;;;;34.95;23.17;;;6.00;99.90;;;;;;5042604;28;20021;-77
2022/12/01 05:27:57;;;;;;;48.10;28.27;;;6.00;99.90;;;;;;5023299;28;20029;-77
2022/12/01 05:30:23;;;;;;;44.78;26.17;;;6.10;99.90;;;;;;5041778;28;20065;-77
2022/12/01 05:32:49;;;;;;;52.63;26.10;;;6.10;99.90;;;;;;5027633;28;20014;-77
2022/12/01 05:35:15;;;;;;;54.95;27.95;;;6.10;99.90;;;;;;5039033;28;20044;-77
2022/12/01 05:37:41;;;;;;;54.83;30.92;;;6.10;99.90;;;;;;5007999;28;20037;-77
2022/12/01 05:40:07;;;;;;;41.33;30.23;;;6.10;99.90;;;;;;5038343;28;20034;-76
2022/12/01 05:42:33;;;;;;;39.15;25.77;;;6.10;99.90;;;;;;5037925;28;20033;-76
2022/12/01 05:44:59;;;;;;;42.40;26.60;;;6.10;99.90;;;;;;5030417;28;20045;-77
2022/12/01 05:47:25;;;;;;;48.05;25.92;;;6.10;99.90;;;;;;5027888;28;20041;-77
2022/12/01 05:49:51;;;;;;;46.85;29.45;;;6.10;99.90;;;;;;5043929;28;20025;-77
2022/12/01 05:52:17;;;;;;;41.35;26.30;;;6.20;99.90;;;;;;5028057;28;20038;-77
2022/12/01 05:54:43;;;;;;;42.00;26.90;;;6.10;99.90;;;;;;5011407;28;20108;-76
2022/12/01 05:57:09;;;;;;;45.22;22.83;;;6.00;99.90;;;;;;5043758;28;20029;-77
2022/12/01 05:59:35;;;;;;;39.80;24.33;;;6.20;99.90;;;;;;5049738;28;20485;-77
2022/12/01 06:02:00;;;;;;;49.67;25.92;;;6.10;99.90;;;;;;5011093;28;20029;-77
2022/12/01 06:04:26;;;;;;;43.08;25.40;;;6.10;99.90;;;;;;5043957;28;20050;-77
2022/12/01 06:06:52;;;;;;;47.45;29.75;;;6.10;99.90;;;;;;5010966;28;20188;-76
2022/12/01 06:09:18;;;;;;;36.42;24.65;;;6.10;99.90;;;;;;5008239;28;20053;-76
2022/12/01 06:11:43;;;;;;;28.05;23.58;;;6.10;99.90;;;;;;5018964;28;20030;-76
2022/12/01 06:14:09;;;;;;;46.35;24.55;;;6.10;99.90;;;;;;5044152;28;20041;-77
2022/12/01 06:16:35;;;;;;;37.88;23.88;;;6.10;99.90;;;;;;5043864;28;20029;-77
2022/12/01 06:19:01;;;;;;;31.75;24.65;;;6.10;99.90;;;;;;5027299;28;20022;-77
2022/12/01 06:21:27;;;;;;;42.38;26.15;;;6.10;99.90;;;;;;5043829;28;20052;-77
2022/12/01 06:23:53;;;;;;;43.75;27.13;;;6.10;99.90;;;;;;5044264;28;20033;-76
2022/12/01 06:26:19;;;;;;;47.00;25.90;;;6.10;99.90;;;;;;5043996;28;20049;-77
2022/12/01 06:28:45;;;;;;;26.15;22.17;;;6.10;99.90;;;;;;5043782;28;20045;-76
2022/12/01 06:31:12;;;;;;;42.03;22.25;;;6.10;99.90;;;;;;5044023;28;20036;-76
2022/12/01 06:33:38;;;;;;;36.47;23.35;;;6.00;99.90;;;;;;5043921;28;20017;-77
2022/12/01 06:36:05;;;;;;;33.97;21.75;;;6.10;99.90;;;;;;5045578;28;20029;-76
2022/12/01 06:38:35;;;;;;;38.60;20.58;;;6.10;99.90;;;;;;5043861;28;20041;-76
2022/12/01 06:41:01;;;;;;;;;;;6.00;99.90;;;;;;5027710;28;20033;-77
2022/12/01 06:43:28;;;;;;;30.70;19.02;;;6.00;99.90;;;;;;5044004;28;19964;-76
2022/12/01 06:45:54;;;;;;;39.28;23.77;;;6.00;99.90;;;;;;5043955;28;20056;-77
2022/12/01 06:48:20;;;;;;;30.63;20.45;;;6.00;99.90;;;;;;5023963;28;20038;-76
2022/12/01 06:50:46;;;;;;;27.50;21.05;;;6.00;99.90;;;;;;5040941;28;20030;-77
2022/12/01 06:53:12;;;;;;;25.10;19.80;;;6.00;99.90;;;;;;5032396;28;20049;-76
2022/12/01 06:55:38;;;;;;;29.90;17.42;;;6.00;99.90;;;;;;5047386;28;20033;-77
2022/12/01 06:58:04;;;;;;;38.55;21.70;;;6.00;99.90;;;;;;5047666;28;20048;-77
2022/12/01 07:00:31;;;;;;;36.65;23.40;;;6.00;99.90;;;;;;5048206;28;20091;-76
2022/12/01 07:02:56;;;;;;;31.60;20.75;;;6.00;99.90;;;;;;5040382;28;20037;-77
2022/12/01 07:05:23;;;;;;;29.95;21.33;;;6.00;99.90;;;;;;5028470;28;20055;-76
2022/12/01 07:07:49;;;;;;;29.58;21.83;;;6.00;99.90;;;;;;5035367;28;20069;-76
2022/12/01 07:10:14;;;;;;;24.23;19.60;;;6.00;99.90;;;;;;5030545;28;20033;-76
2022/12/01 07:12:41;;;;;;;23.75;17.88;;;6.00;99.90;;;;;;5032124;28;20037;-76
2022/12/01 07:15:07;;;;;;;27.27;18.50;;;6.00;99.90;;;;;;5027828;28;20099;-77
2022/12/01 07:17:34;;;;;;;28.17;20.40;;;5.90;99.90;;;;;;5035924;28;20033;-76
2022/12/01 07:20:00;;;;;;;35.67;20.33;;;6.00;99.90;;;;;;5028438;28;20018;-77
2022/12/01 07:22:27;;;;;;;20.00;15.20;;;5.90;99.90;;;;;;5035758;28;20038;-76
2022/12/01 07:24:53;;;;;;;22.88;17.83;;;5.70;99.90;;;;;;5028260;28;20030;-77
2022/12/01 07:27:19;;;;;;;17.95;15.27;;;5.70;99.90;;;;;;4993617;28;20048;-77
2022/12/01 07:29:45;;;;;;;29.85;17.38;;;5.70;99.90;;;;;;5026786;28;20125;-77
2022/12/01 07:32:10;;;;;;;23.75;17.60;;;5.70;99.90;;;;;;5026828;28;20022;-76
2022/12/01 07:34:36;;;;;;;23.80;18.25;;;5.70;99.90;;;;;;5038621;28;20033;-76
2022/12/01 07:37:02;;;;;;;30.27;21.95;;;5.80;99.90;;;;;;5029763;28;20041;-77
2022/12/01 07:39:28;;;;;;;23.38;16.70;;;5.80;99.90;;;;;;5042070;28;20124;-76
2022/12/01 07:41:53;;;;;;;24.65;19.35;;;5.80;99.90;;;;;;5045843;28;20496;-76
2022/12/01 07:44:19;;;;;;;34.03;20.77;;;5.80;99.90;;;;;;5045560;28;20038;-76
2022/12/01 07:46:45;;;;;;;33.67;23.50;;;5.80;99.90;;;;;;5042440;28;20040;-76
2022/12/01 07:49:13;;;;;;;77.28;56.17;;;5.80;99.90;;;;;;5009897;28;20026;-76
2022/12/01 07:51:39;;;;;;;31.88;23.13;;;5.80;99.90;;;;;;5032440;28;20105;-76
2022/12/01 07:54:06;;;;;;;28.17;19.75;;;5.80;99.90;;;;;;5043794;28;20084;-76
2022/12/01 07:56:32;;;;;;;31.55;23.42;;;5.90;99.90;;;;;;5042780;28;20021;-76
2022/12/01 07:59:25;;;;;;;28.70;21.65;;;5.80;99.90;;;;;;5045663;28;20057;-77
2022/12/01 08:01:51;;;;;;;29.45;18.63;;;5.90;99.90;;;;;;5044879;28;20037;-77
2022/12/01 08:04:17;;;;;;;28.90;19.60;;;5.90;99.90;;;;;;5026297;28;20137;-77
2022/12/01 08:06:42;;;;;;;25.73;18.40;;;6.00;99.90;;;;;;5026443;28;20038;-77
2022/12/01 08:09:08;;;;;;;28.88;22.00;;;6.10;99.90;;;;;;5043265;28;20087;-77
2022/12/01 08:11:34;;;;;;;23.90;17.10;;;6.10;99.90;;;;;;5045768;28;20113;-77
2022/12/01 08:14:00;;;;;;;26.77;19.88;;;6.10;99.90;;;;;;5027607;28;20045;-77
2022/12/01 08:16:26;;;;;;;22.67;18.60;;;6.10;99.90;;;;;;5038880;28;20025;-77
2022/12/01 08:18:53;;;;;;;31.13;20.20;;;6.10;99.90;;;;;;5039283;28;20033;-78
2022/12/01 08:21:21;;;;;;;29.55;18.80;;;6.10;99.90;;;;;;5029006;28;20029;-78
2022/12/01 08:23:51;;;;;;;24.48;21.65;;;6.20;99.90;;;;;;5044884;28;20430;-77
2022/12/01 08:26:19;;;;;;;31.90;23.13;;;6.20;99.90;;;;;;5058248;28;20558;-77
2022/12/01 08:28:45;;;;;;;24.90;19.55;;;6.30;99.90;;;;;;5025903;28;20476;-77
2022/12/01 08:31:24;;;;;;;25.70;18.30;;;6.30;99.90;;;;;;5033018;28;20108;-77
2022/12/01 08:33:50;;;;;;;29.58;17.27;;;6.30;99.90;;;;;;5044875;28;20036;-77
2022/12/01 08:36:17;;;;;;;33.05;18.13;;;6.40;99.90;;;;;;5048632;28;20033;-78
2022/12/01 08:38:44;;;;;;;31.17;18.15;;;6.40;99.90;;;;;;5059713;28;20040;-77
2022/12/01 08:41:11;;;;;;;31.02;20.58;;;6.40;99.90;;;;;;5041880;28;20030;-77
2022/12/01 08:43:39;;;;;;;30.08;18.95;;;6.50;99.90;;;;;;5037652;28;20104;-77
2022/12/01 08:46:05;;;;;;;29.63;20.20;;;6.50;99.90;;;;;;5047403;28;20026;-77
2022/12/01 08:48:31;;;;;;;29.27;17.77;;;6.60;99.90;;;;;;5040613;28;20025;-77
2022/12/01 08:51:06;;;;;;;23.73;16.40;;;6.70;99.90;;;;;;5028418;28;20048;-78
2022/12/01 08:53:33;;;;;;;24.63;18.95;;;6.60;99.90;;;;;;5046247;28;20485;-77
2022/12/01 08:56:02;;;;;;;21.80;16.77;;;6.70;99.90;;;;;;5040067;28;20093;-78
2022/12/01 08:58:28;;;;;;;30.75;20.35;;;6.70;99.90;;;;;;5037984;28;20044;-78
2022/12/01 09:01:01;;;;;;;33.05;19.17;;;6.70;99.90;;;;;;5043151;28;20447;-77
2022/12/01 09:03:26;;;;;;;30.30;18.83;;;6.70;99.90;;;;;;5057062;28;20029;-76
2022/12/01 09:05:52;;;;;;;24.63;18.80;;;6.80;99.90;;;;;;5063059;28;20375;-76
2022/12/01 09:08:30;;;;;;;26.70;17.70;;;6.80;99.90;;;;;;5044823;28;20041;-75
2022/12/01 09:10:56;;;;;;;23.73;17.58;;;6.80;99.90;;;;;;5031449;28;20120;-78
2022/12/01 09:13:22;;;;;;;27.38;18.08;;;6.80;99.90;;;;;;5044527;28;20112;-75
2022/12/01 09:15:56;;;;;;;29.65;20.05;;;6.90;99.90;;;;;;5064848;28;20028;-77
2022/12/01 09:18:22;;;;;;;26.85;19.95;;;6.90;99.90;;;;;;5052992;28;20080;-77
2022/12/01 09:20:48;;;;;;;34.90;20.85;;;6.90;99.90;;;;;;5051082;28;20041;-77
2022/12/01 09:23:14;;;;;;;23.45;17.70;;;6.90;99.90;;;;;;5040779;28;20033;-77
2022/12/01 09:25:39;;;;;;;24.50;18.92;;;6.90;99.90;;;;;;5043401;28;20025;-77
2022/12/01 09:28:05;;;;;;;28.92;22.02;;;6.80;99.90;;;;;;5040277;28;20045;-77
2022/12/01 09:30:33;;;;;;;28.83;19.27;;;6.80;99.90;;;;;;5042609;28;20030;-77
2022/12/01 09:32:59;;;;;;;25.77;17.90;;;6.80;99.90;;;;;;5030656;28;20049;-77
2022/12/01 09:35:25;;;;;;;31.92;22.42;;;6.80;99.90;;;;;;5037080;28;20388;-77
2022/12/01 09:37:51;;;;;;;28.27;19.33;;;6.80;99.90;;;;;;5040279;28;20038;-77
2022/12/01 09:40:17;;;;;;;32.63;22.55;;;6.90;99.90;;;;;;5045779;28;20023;-75
2022/12/01 09:42:46;;;;;;;26.85;17.77;;;6.90;99.90;;;;;;5043669;28;20417;-77
2022/12/01 09:45:26;;;;;;;25.05;17.83;;;6.90;99.90;;;;;;5043786;28;20033;-77
2022/12/01 09:47:56;;;;;;;29.13;19.58;;;6.90;99.90;;;;;;5045828;28;20048;-77
2022/12/01 09:50:24;;;;;;;28.80;18.65;;;7.00;99.90;;;;;;5045654;28;20021;-77
2022/12/01 09:52:55;;;;;;;27.42;18.67;;;7.00;99.90;;;;;;5044343;28;20057;-77
2022/12/01 09:55:23;;;;;;;22.50;19.40;;;7.00;99.90;;;;;;5041057;28;20490;-77
2022/12/01 09:57:52;;;;;;;28.90;20.88;;;7.00;99.90;;;;;;5028358;28;20454;-77
2022/12/01 10:00:28;;;;;;;24.30;18.50;;;7.00;99.90;;;;;;5030773;28;20029;-77
2022/12/01 10:03:33;;;;;;;27.80;19.08;;;6.90;99.90;;;;;;5032046;28;20080;-77
2022/12/01 10:06:14;;;;;;;26.73;20.38;;;6.90;99.90;;;;;;5024849;28;20042;-77
2022/12/01 10:08:48;;;;;;;26.63;19.35;;;7.00;99.90;;;;;;5027960;28;20045;-77
2022/12/01 10:11:35;;;;;;;29.67;21.70;;;6.90;99.90;;;;;;5034659;28;20022;-77
2022/12/01 10:14:03;;;;;;;25.95;18.58;;;6.90;99.90;;;;;;5044012;28;20026;-77
2022/12/01 10:16:46;;;;;;;29.95;23.38;;;7.00;99.90;;;;;;5039383;28;20054;-78
2022/12/01 10:19:37;;;;;;;35.28;26.88;;;7.00;99.90;;;;;;5044851;28;20041;-76
2022/12/01 10:22:11;;;;;;;37.15;24.45;;;7.00;99.90;;;;;;5037668;28;20025;-77
2022/12/01 10:24:54;;;;;;;38.90;24.83;;;7.10;99.90;;;;;;5025354;28;20495;-77
2022/12/01 10:27:28;;;;;;;30.60;25.52;;;7.10;99.90;;;;;;5019743;28;20037;-77
2022/12/01 10:30:05;;;;;;;29.33;22.25;;;7.10;99.90;;;;;;5043884;28;20509;-78
2022/12/01 10:32:54;;;;;;;26.60;21.20;;;7.10;99.90;;;;;;5041156;28;20034;-77
2022/12/01 10:35:22;;;;;;;29.92;19.50;;;7.20;99.90;;;;;;5030559;28;20052;-77
2022/12/01 10:37:55;;;;;;;31.60;19.48;;;7.20;99.90;;;;;;5029052;28;20097;-77
2022/12/01 10:40:21;;;;;;;31.10;21.40;;;7.30;99.90;;;;;;5027796;28;20061;-77
2022/12/01 10:42:49;;;;;;;34.33;22.67;;;7.40;99.90;;;;;;5029204;28;20029;-77
2022/12/01 10:45:29;;;;;;;29.35;22.73;;;7.50;99.90;;;;;;5037912;28;20044;-77
2022/12/01 10:48:09;;;;;;;24.20;19.23;;;8.10;99.90;;;;;;5047298;28;20045;-77
2022/12/01 10:50:35;;;;;;;31.55;23.00;;;8.80;99.90;;;;;;5042996;28;20069;-77
2022/12/01 10:53:02;;;;;;;27.13;20.27;;;9.40;99.90;;;;;;5028490;28;20032;-77
2022/12/01 10:55:32;;;;;;;26.77;17.60;;;9.80;99.90;;;;;;5029269;28;20026;-77
2022/12/01 10:57:59;;;;;;;;;;;10.30;99.90;;;;;;5029219;28;20036;-74
2022/12/01 11:00:36;;;;;;;30.02;19.58;;;10.90;99.90;;;;;;5039342;28;19913;-76
2022/12/01 11:03:03;;;;;;;28.13;16.52;;;11.50;99.90;;;;;;5032529;28;20098;-76
2022/12/01 11:05:34;;;;;;;25.20;15.05;;;11.50;99.90;;;;;;5037503;28;20054;-76
2022/12/01 11:08:01;;;;;;;24.05;15.85;;;11.60;99.90;;;;;;5041129;28;20026;-77
2022/12/01 11:10:30;;;;;;;26.80;17.08;;;11.50;99.90;;;;;;5032235;28;20083;-77
2022/12/01 11:13:15;;;;;;;25.13;17.70;;;11.10;99.90;;;;;;5027851;28;20057;-77
2022/12/01 11:15:51;;;;;;;19.92;17.85;;;10.80;99.90;;;;;;5034144;28;20038;-77
2022/12/01 11:18:23;;;;;;;29.08;17.83;;;10.70;99.90;;;;;;5035805;28;20099;-76
2022/12/01 11:21:15;;;;;;;21.17;17.50;;;10.30;99.90;;;;;;5047978;28;20087;-77
2022/12/01 11:23:47;;;;;;;19.38;14.48;;;10.10;99.90;;;;;;5046816;28;20037;-77
2022/12/01 11:26:24;;;;;;;23.08;15.63;;;9.70;99.90;;;;;;5032277;28;20052;-77
2022/12/01 11:28:56;;;;;;;23.00;16.00;;;9.60;99.90;;;;;;5037886;28;20030;-77
2022/12/01 11:31:35;;;;;;;20.60;16.10;;;9.60;99.90;;;;;;5055538;28;20037;-77
2022/12/01 11:34:01;;;;;;;19.48;16.58;;;9.60;99.90;;;;;;5040656;28;20364;-77
2022/12/01 11:36:42;;;;;;;20.95;14.77;;;9.20;99.90;;;;;;5028181;28;20026;-77
2022/12/01 11:39:39;;;;;;;20.00;16.90;;;9.10;99.90;;;;;;5027962;28;20061;-77
2022/12/01 11:42:25;;;;;;;20.08;14.77;;;9.00;99.90;;;;;;5030003;28;20036;-77
2022/12/01 11:45:05;;;;;;;22.33;15.93;;;9.00;99.90;;;;;;5041472;28;20479;-77
2022/12/01 11:47:31;;;;;;;22.13;17.87;;;9.10;99.90;;;;;;5045446;28;20026;-76
2022/12/01 11:50:03;;;;;;;26.08;15.88;;;9.20;99.90;;;;;;5036835;28;20479;-76
2022/12/01 11:52:31;;;;;;;23.83;16.83;;;8.40;99.90;;;;;;5034525;28;20026;-76
2022/12/01 11:55:09;;;;;;;27.42;18.48;;;9.10;99.90;;;;;;5027843;28;20037;-76
2022/12/01 11:57:36;;;;;;;21.65;14.80;;;8.90;99.90;;;;;;5033403;28;20029;-76
2022/12/01 12:00:15;;;;;;;26.75;17.38;;;8.90;99.90;;;;;;5027235;28;20034;-76
2022/12/01 12:03:07;;;;;;;25.30;16.13;;;8.90;99.90;;;;;;5032977;28;20054;-76
2022/12/01 12:05:38;;;;;;;;;;;8.90;99.90;;;;;;5050757;28;20042;-76
2022/12/01 12:08:04;;;;;;;19.52;16.90;;;9.00;99.90;;;;;;5036138;28;19935;-76
2022/12/01 12:10:40;;;;;;;27.00;17.77;;;9.00;99.90;;;;;;5047305;28;20029;-77
2022/12/01 12:13:14;;;;;;;22.33;16.10;;;9.00;99.90;;;;;;5046384;28;20098;-77
2022/12/01 12:15:49;;;;;;;22.38;16.98;;;8.90;99.90;;;;;;5031008;28;20037;-76
2022/12/01 12:18:30;;;;;;;19.45;14.77;;;9.00;99.90;;;;;;5046046;28;20437;-77
2022/12/01 12:21:26;;;;;;;20.90;16.67;;;9.00;99.90;;;;;;5045843;28;20118;-76
2022/12/01 12:23:55;;;;;;;28.08;18.60;;;8.90;99.90;;;;;;5032157;28;20029;-77
2022/12/01 12:26:33;;;;;;;26.55;19.50;;;8.90;99.90;;;;;;5045724;28;20064;-77
2022/12/01 12:29:20;;;;;;;26.30;18.65;;;8.80;99.90;;;;;;5040273;28;20038;-77
2022/12/01 12:31:46;;;;;;;24.27;16.58;;;8.70;99.90;;;;;;5031858;28;20022;-76
2022/12/01 12:34:27;;;;;;;35.90;19.35;;;8.50;99.90;;;;;;5042875;28;20026;-77
2022/12/01 12:36:58;;;;;;;25.25;14.32;;;8.40;99.90;;;;;;5043761;28;20113;-77
2022/12/01 12:39:29;;;;;;;29.83;19.80;;;8.40;99.90;;;;;;5025680;28;20022;-76
2022/12/01 12:41:56;;;;;;;25.75;16.55;;;8.40;99.90;;;;;;5031093;28;20025;-77
2022/12/01 12:44:25;;;;;;;27.33;19.20;;;8.40;99.90;;;;;;5035318;28;20037;-77
2022/12/01 12:47:17;;;;;;;27.77;19.90;;;8.40;99.90;;;;;;5034906;28;20098;-76
2022/12/01 12:49:52;;;;;;;34.22;18.95;;;8.40;99.90;;;;;;5034187;28;20476;-76
2022/12/01 12:52:45;;;;;;;27.13;18.52;;;8.30;99.90;;;;;;5026860;28;20030;-76
2022/12/01 12:55:25;;;;;;;32.20;20.88;;;8.30;99.90;;;;;;5025959;28;20037;-77
2022/12/01 12:58:11;;;;;;;26.55;20.88;;;8.10;99.90;;;;;;5031023;28;20089;-77
2022/12/01 13:00:43;;;;;;;25.60;19.45;;;7.90;99.90;;;;;;5043037;28;20033;-77
2022/12/01 13:03:22;;;;;;;30.40;22.25;;;7.90;99.90;;;;;;5044731;28;20017;-77